Main page
METAR-TAF:

METAR-TAF

Airports :

Longyearbyen, Norway

Svalbard Airport

latitude: 78-15N, longitude: 015-28E, elevation: 2 m

Current weather observation

The report was made 24 minutes ago, at 11:50 UTC
Wind 6 kt from the West
Temperature 6°C
Humidity 75%
Pressure 1004 hPa
Visibility 10 km or more
Few clouds at a height of 2000 ft
Scattered clouds at a height of 2500 ft
Broken clouds at a height of 4500 ft
light rain

METAR: ENSB 261150Z 26006KT 9999 -RA FEW020 SCT025 BKN045 06/02 Q1004 NOSIG RMK WIND 1400FT 25006KT

Time: 14:14 (12:14 UTC)


TAF: missing

Weather observations and forecasts of more than 4000 airports (METAR and TAF reports).

The available stations are represented by yellow and red dots on the map.

Hover mouse over dot to see the name of the station.

Then click to see weather observations and forecasts.

To change the map : click on the green buttons with a black cross to zoom in, on the green button with a dash to zoom out, or on the green arrows for adjacent maps.


METAR-TAF: